Terminal Aerodrome Forecast
Issued by NWS Cleveland, OH

Home | Current Version | Previous Version | Text Only | Print | Product List | Glossary Off
Versions: 1 2 3 4 5 6 7 8 9 10 11 12 13 14 15 16 17 18

000
FTUS41 KCLE 021700
TAFERI
TAF
KERI 021734Z 0218/0318 27015G22KT P6SM SCT030 BKN250
     FM030200 23008KT P6SM BKN200
     FM031000 15015KT P6SM BKN090
     FM031500 16020KT P6SM SCT018 BKN025 OVC040=

USA.gov is the U.S. government's official web portal to all federal, state and local government web resources and services.